sensor_id;sensor_type;location;lat;lon;timestamp;P1;durP1;ratioP1;P2;durP2;ratioP2
6378;SDS011;3222;48.858;10.128;2023-10-13T00:00:32;6.53;;;3.27;;
6378;SDS011;3222;48.858;10.128;2023-10-13T00:03:01;6.67;;;3.20;;
6378;SDS011;3222;48.858;10.128;2023-10-13T00:05:28;8.50;;;3.10;;
6378;SDS011;3222;48.858;10.128;2023-10-13T00:07:58;6.03;;;3.70;;
6378;SDS011;3222;48.858;10.128;2023-10-13T00:10:31;5.30;;;3.53;;
6378;SDS011;3222;48.858;10.128;2023-10-13T00:12:58;6.73;;;3.60;;
6378;SDS011;3222;48.858;10.128;2023-10-13T00:15:44;6.47;;;3.47;;
6378;SDS011;3222;48.858;10.128;2023-10-13T00:18:25;8.10;;;3.97;;
6378;SDS011;3222;48.858;10.128;2023-10-13T00:21:08;6.27;;;3.40;;
6378;SDS011;3222;48.858;10.128;2023-10-13T00:23:52;7.07;;;3.80;;
6378;SDS011;3222;48.858;10.128;2023-10-13T00:26:22;5.57;;;3.43;;
6378;SDS011;3222;48.858;10.128;2023-10-13T00:28:54;6.33;;;3.40;;
6378;SDS011;3222;48.858;10.128;2023-10-13T00:31:37;7.10;;;3.63;;
6378;SDS011;3222;48.858;10.128;2023-10-13T00:34:05;5.33;;;3.43;;
6378;SDS011;3222;48.858;10.128;2023-10-13T00:36:37;4.20;;;3.13;;
6378;SDS011;3222;48.858;10.128;2023-10-13T00:39:13;6.83;;;3.20;;
6378;SDS011;3222;48.858;10.128;2023-10-13T00:41:42;4.07;;;2.93;;
6378;SDS011;3222;48.858;10.128;2023-10-13T00:44:19;7.83;;;3.17;;
6378;SDS011;3222;48.858;10.128;2023-10-13T00:46:51;9.97;;;4.17;;
6378;SDS011;3222;48.858;10.128;2023-10-13T00:49:21;5.13;;;3.63;;
6378;SDS011;3222;48.858;10.128;2023-10-13T00:51:48;6.00;;;2.83;;
6378;SDS011;3222;48.858;10.128;2023-10-13T00:54:15;7.83;;;3.47;;
6378;SDS011;3222;48.858;10.128;2023-10-13T00:56:45;9.60;;;2.97;;
6378;SDS011;3222;48.858;10.128;2023-10-13T00:59:17;4.93;;;3.40;;
6378;SDS011;3222;48.858;10.128;2023-10-13T01:01:42;5.43;;;3.20;;
6378;SDS011;3222;48.858;10.128;2023-10-13T01:04:09;5.43;;;3.03;;
6378;SDS011;3222;48.858;10.128;2023-10-13T01:06:38;7.30;;;3.23;;
6378;SDS011;3222;48.858;10.128;2023-10-13T01:09:08;5.83;;;3.23;;
6378;SDS011;3222;48.858;10.128;2023-10-13T01:11:45;3.03;;;2.73;;
6378;SDS011;3222;48.858;10.128;2023-10-13T01:14:13;3.93;;;3.07;;
6378;SDS011;3222;48.858;10.128;2023-10-13T01:16:43;7.10;;;3.47;;
6378;SDS011;3222;48.858;10.128;2023-10-13T01:19:13;7.13;;;3.27;;
6378;SDS011;3222;48.858;10.128;2023-10-13T01:21:43;4.00;;;2.80;;
6378;SDS011;3222;48.858;10.128;2023-10-13T01:24:13;6.67;;;3.40;;
6378;SDS011;3222;48.858;10.128;2023-10-13T01:26:44;4.93;;;3.37;;
6378;SDS011;3222;48.858;10.128;2023-10-13T01:29:09;6.87;;;3.20;;
6378;SDS011;3222;48.858;10.128;2023-10-13T01:31:42;7.20;;;3.17;;
6378;SDS011;3222;48.858;10.128;2023-10-13T01:34:15;4.17;;;3.00;;
6378;SDS011;3222;48.858;10.128;2023-10-13T01:36:50;6.97;;;3.23;;
6378;SDS011;3222;48.858;10.128;2023-10-13T01:39:17;6.47;;;2.87;;
6378;SDS011;3222;48.858;10.128;2023-10-13T01:41:45;9.10;;;3.00;;
6378;SDS011;3222;48.858;10.128;2023-10-13T01:44:10;7.13;;;3.23;;
6378;SDS011;3222;48.858;10.128;2023-10-13T01:46:42;5.80;;;2.83;;
6378;SDS011;3222;48.858;10.128;2023-10-13T01:49:08;6.90;;;3.00;;
6378;SDS011;3222;48.858;10.128;2023-10-13T01:51:33;8.20;;;3.10;;
6378;SDS011;3222;48.858;10.128;2023-10-13T01:53:59;6.87;;;2.77;;
6378;SDS011;3222;48.858;10.128;2023-10-13T01:56:28;6.83;;;3.30;;
6378;SDS011;3222;48.858;10.128;2023-10-13T01:58:56;6.47;;;3.93;;
6378;SDS011;3222;48.858;10.128;2023-10-13T02:01:21;7.80;;;3.17;;
6378;SDS011;3222;48.858;10.128;2023-10-13T02:03:54;6.53;;;3.67;;
6378;SDS011;3222;48.858;10.128;2023-10-13T02:06:30;8.57;;;3.23;;
6378;SDS011;3222;48.858;10.128;2023-10-13T02:09:05;8.07;;;3.47;;
6378;SDS011;3222;48.858;10.128;2023-10-13T02:11:41;5.70;;;3.33;;
6378;SDS011;3222;48.858;10.128;2023-10-13T02:14:11;8.13;;;3.50;;
6378;SDS011;3222;48.858;10.128;2023-10-13T02:16:41;3.83;;;2.90;;
6378;SDS011;3222;48.858;10.128;2023-10-13T02:19:07;6.10;;;2.97;;
6378;SDS011;3222;48.858;10.128;2023-10-13T02:21:34;6.37;;;2.97;;
6378;SDS011;3222;48.858;10.128;2023-10-13T02:24:09;7.77;;;2.97;;
6378;SDS011;3222;48.858;10.128;2023-10-13T02:26:43;5.43;;;2.90;;
6378;SDS011;3222;48.858;10.128;2023-10-13T02:29:10;7.37;;;3.30;;
6378;SDS011;3222;48.858;10.128;2023-10-13T02:31:42;7.20;;;3.40;;
6378;SDS011;3222;48.858;10.128;2023-10-13T02:34:19;9.47;;;2.90;;
6378;SDS011;3222;48.858;10.128;2023-10-13T02:36:47;4.43;;;3.17;;
6378;SDS011;3222;48.858;10.128;2023-10-13T02:39:16;7.07;;;3.33;;
6378;SDS011;3222;48.858;10.128;2023-10-13T02:41:49;6.50;;;3.10;;
6378;SDS011;3222;48.858;10.128;2023-10-13T02:44:15;4.60;;;3.07;;
6378;SDS011;3222;48.858;10.128;2023-10-13T02:46:56;8.40;;;3.70;;
6378;SDS011;3222;48.858;10.128;2023-10-13T02:49:23;5.00;;;3.30;;
6378;SDS011;3222;48.858;10.128;2023-10-13T02:51:51;6.90;;;3.03;;
6378;SDS011;3222;48.858;10.128;2023-10-13T02:54:18;4.80;;;3.20;;
6378;SDS011;3222;48.858;10.128;2023-10-13T02:56:44;6.77;;;3.80;;
6378;SDS011;3222;48.858;10.128;2023-10-13T02:59:26;3.23;;;2.83;;
6378;SDS011;3222;48.858;10.128;2023-10-13T03:02:21;5.73;;;3.27;;
6378;SDS011;3222;48.858;10.128;2023-10-13T03:04:54;5.43;;;3.10;;
6378;SDS011;3222;48.858;10.128;2023-10-13T03:07:25;8.17;;;3.27;;
6378;SDS011;3222;48.858;10.128;2023-10-13T03:09:54;5.07;;;3.00;;
6378;SDS011;3222;48.858;10.128;2023-10-13T03:12:34;6.53;;;3.63;;
6378;SDS011;3222;48.858;10.128;2023-10-13T03:15:01;7.67;;;3.70;;
6378;SDS011;3222;48.858;10.128;2023-10-13T03:17:46;4.07;;;2.87;;
6378;SDS011;3222;48.858;10.128;2023-10-13T03:20:13;4.40;;;3.20;;
6378;SDS011;3222;48.858;10.128;2023-10-13T03:22:41;5.27;;;3.40;;
6378;SDS011;3222;48.858;10.128;2023-10-13T03:25:10;5.70;;;3.10;;
6378;SDS011;3222;48.858;10.128;2023-10-13T03:27:54;5.00;;;3.13;;
6378;SDS011;3222;48.858;10.128;2023-10-13T03:30:23;6.93;;;3.37;;
6378;SDS011;3222;48.858;10.128;2023-10-13T03:32:55;7.23;;;3.27;;
6378;SDS011;3222;48.858;10.128;2023-10-13T03:35:21;5.50;;;3.37;;
6378;SDS011;3222;48.858;10.128;2023-10-13T03:37:49;6.80;;;3.20;;
6378;SDS011;3222;48.858;10.128;2023-10-13T03:40:18;12.97;;;3.73;;
6378;SDS011;3222;48.858;10.128;2023-10-13T03:42:47;12.00;;;3.60;;
6378;SDS011;3222;48.858;10.128;2023-10-13T03:45:29;7.57;;;3.47;;
6378;SDS011;3222;48.858;10.128;2023-10-13T03:48:02;4.53;;;3.10;;
6378;SDS011;3222;48.858;10.128;2023-10-13T03:50:34;5.57;;;3.70;;
6378;SDS011;3222;48.858;10.128;2023-10-13T03:53:13;8.47;;;3.30;;
6378;SDS011;3222;48.858;10.128;2023-10-13T03:55:39;11.40;;;3.97;;
6378;SDS011;3222;48.858;10.128;2023-10-13T03:58:06;9.30;;;5.07;;
6378;SDS011;3222;48.858;10.128;2023-10-13T04:00:32;10.60;;;5.80;;
6378;SDS011;3222;48.858;10.128;2023-10-13T04:02:57;9.07;;;5.03;;
6378;SDS011;3222;48.858;10.128;2023-10-13T04:05:34;12.57;;;4.90;;
6378;SDS011;3222;48.858;10.128;2023-10-13T04:08:25;8.77;;;5.30;;
6378;SDS011;3222;48.858;10.128;2023-10-13T04:10:55;9.00;;;4.80;;
6378;SDS011;3222;48.858;10.128;2023-10-13T04:13:41;9.37;;;4.60;;
6378;SDS011;3222;48.858;10.128;2023-10-13T04:16:26;7.70;;;4.30;;
6378;SDS011;3222;48.858;10.128;2023-10-13T04:18:51;11.40;;;5.37;;
6378;SDS011;3222;48.858;10.128;2023-10-13T04:21:22;11.37;;;5.40;;
6378;SDS011;3222;48.858;10.128;2023-10-13T04:24:04;10.10;;;5.00;;
6378;SDS011;3222;48.858;10.128;2023-10-13T04:26:42;12.77;;;6.00;;
6378;SDS011;3222;48.858;10.128;2023-10-13T04:29:28;12.27;;;4.93;;
6378;SDS011;3222;48.858;10.128;2023-10-13T04:32:14;9.67;;;4.47;;
6378;SDS011;3222;48.858;10.128;2023-10-13T04:34:53;9.80;;;5.33;;
6378;SDS011;3222;48.858;10.128;2023-10-13T04:37:42;14.00;;;6.50;;
6378;SDS011;3222;48.858;10.128;2023-10-13T04:40:18;10.47;;;6.80;;
6378;SDS011;3222;48.858;10.128;2023-10-13T04:42:49;12.77;;;6.43;;
6378;SDS011;3222;48.858;10.128;2023-10-13T04:45:19;7.47;;;5.40;;
6378;SDS011;3222;48.858;10.128;2023-10-13T04:48:00;9.90;;;5.47;;
6378;SDS011;3222;48.858;10.128;2023-10-13T04:50:43;9.27;;;4.77;;
6378;SDS011;3222;48.858;10.128;2023-10-13T04:53:15;10.10;;;4.67;;
6378;SDS011;3222;48.858;10.128;2023-10-13T04:56:20;6.00;;;4.37;;
6378;SDS011;3222;48.858;10.128;2023-10-13T04:59:04;8.13;;;3.40;;
6378;SDS011;3222;48.858;10.128;2023-10-13T05:01:49;12.47;;;3.87;;
6378;SDS011;3222;48.858;10.128;2023-10-13T05:04:50;9.90;;;3.90;;
6378;SDS011;3222;48.858;10.128;2023-10-13T05:07:31;5.90;;;3.53;;
6378;SDS011;3222;48.858;10.128;2023-10-13T05:10:18;8.37;;;3.47;;
6378;SDS011;3222;48.858;10.128;2023-10-13T05:13:03;6.70;;;3.87;;
6378;SDS011;3222;48.858;10.128;2023-10-13T05:15:48;6.53;;;3.23;;
6378;SDS011;3222;48.858;10.128;2023-10-13T05:18:33;4.40;;;3.10;;
6378;SDS011;3222;48.858;10.128;2023-10-13T05:21:19;6.53;;;3.40;;
6378;SDS011;3222;48.858;10.128;2023-10-13T05:24:03;6.70;;;3.40;;
6378;SDS011;3222;48.858;10.128;2023-10-13T05:26:48;4.27;;;2.93;;
6378;SDS011;3222;48.858;10.128;2023-10-13T05:29:33;6.37;;;3.40;;
6378;SDS011;3222;48.858;10.128;2023-10-13T05:32:17;7.53;;;3.70;;
6378;SDS011;3222;48.858;10.128;2023-10-13T05:35:02;6.97;;;3.50;;
6378;SDS011;3222;48.858;10.128;2023-10-13T05:37:46;6.20;;;3.47;;
6378;SDS011;3222;48.858;10.128;2023-10-13T05:40:31;4.43;;;3.23;;
6378;SDS011;3222;48.858;10.128;2023-10-13T05:43:15;7.33;;;3.47;;
6378;SDS011;3222;48.858;10.128;2023-10-13T05:46:02;8.87;;;3.60;;
6378;SDS011;3222;48.858;10.128;2023-10-13T05:48:48;6.30;;;3.30;;
6378;SDS011;3222;48.858;10.128;2023-10-13T05:51:23;8.83;;;3.93;;
6378;SDS011;3222;48.858;10.128;2023-10-13T05:54:01;7.57;;;3.73;;
6378;SDS011;3222;48.858;10.128;2023-10-13T05:59:32;4.83;;;3.60;;
6378;SDS011;3222;48.858;10.128;2023-10-13T06:02:17;6.67;;;3.67;;
6378;SDS011;3222;48.858;10.128;2023-10-13T06:05:06;8.93;;;3.27;;
6378;SDS011;3222;48.858;10.128;2023-10-13T06:07:52;5.60;;;3.60;;
6378;SDS011;3222;48.858;10.128;2023-10-13T06:10:37;4.57;;;3.00;;
6378;SDS011;3222;48.858;10.128;2023-10-13T06:13:22;4.60;;;3.27;;
6378;SDS011;3222;48.858;10.128;2023-10-13T06:16:10;7.73;;;3.63;;
6378;SDS011;3222;48.858;10.128;2023-10-13T06:18:55;6.13;;;3.50;;
6378;SDS011;3222;48.858;10.128;2023-10-13T06:21:40;7.83;;;3.30;;
6378;SDS011;3222;48.858;10.128;2023-10-13T06:24:26;7.77;;;3.63;;
6378;SDS011;3222;48.858;10.128;2023-10-13T06:27:10;11.00;;;3.50;;
6378;SDS011;3222;48.858;10.128;2023-10-13T06:29:54;7.87;;;3.30;;
6378;SDS011;3222;48.858;10.128;2023-10-13T06:32:21;6.23;;;4.03;;
6378;SDS011;3222;48.858;10.128;2023-10-13T06:34:54;5.30;;;3.47;;
6378;SDS011;3222;48.858;10.128;2023-10-13T06:37:24;6.53;;;3.50;;
6378;SDS011;3222;48.858;10.128;2023-10-13T06:39:59;7.40;;;3.87;;
6378;SDS011;3222;48.858;10.128;2023-10-13T06:42:31;6.17;;;4.03;;
6378;SDS011;3222;48.858;10.128;2023-10-13T06:44:59;5.57;;;3.33;;
6378;SDS011;3222;48.858;10.128;2023-10-13T06:47:28;4.77;;;3.27;;
6378;SDS011;3222;48.858;10.128;2023-10-13T06:49:54;5.17;;;3.93;;
6378;SDS011;3222;48.858;10.128;2023-10-13T06:52:21;6.70;;;3.57;;
6378;SDS011;3222;48.858;10.128;2023-10-13T06:54:51;5.97;;;3.50;;
6378;SDS011;3222;48.858;10.128;2023-10-13T06:57:20;6.43;;;3.90;;
6378;SDS011;3222;48.858;10.128;2023-10-13T06:59:46;5.33;;;3.53;;
6378;SDS011;3222;48.858;10.128;2023-10-13T07:02:12;9.50;;;3.40;;
6378;SDS011;3222;48.858;10.128;2023-10-13T07:04:47;12.77;;;4.40;;
6378;SDS011;3222;48.858;10.128;2023-10-13T07:07:17;6.03;;;3.63;;
6378;SDS011;3222;48.858;10.128;2023-10-13T07:09:42;5.53;;;3.40;;
6378;SDS011;3222;48.858;10.128;2023-10-13T07:12:14;6.87;;;3.30;;
6378;SDS011;3222;48.858;10.128;2023-10-13T07:14:48;9.20;;;3.33;;
6378;SDS011;3222;48.858;10.128;2023-10-13T07:17:17;6.63;;;3.40;;
6378;SDS011;3222;48.858;10.128;2023-10-13T07:19:50;6.87;;;3.20;;
6378;SDS011;3222;48.858;10.128;2023-10-13T07:22:21;10.33;;;3.60;;
6378;SDS011;3222;48.858;10.128;2023-10-13T07:24:48;5.40;;;3.70;;
6378;SDS011;3222;48.858;10.128;2023-10-13T07:27:16;4.67;;;3.53;;
6378;SDS011;3222;48.858;10.128;2023-10-13T07:29:52;10.83;;;3.53;;
6378;SDS011;3222;48.858;10.128;2023-10-13T07:32:31;6.20;;;3.40;;
6378;SDS011;3222;48.858;10.128;2023-10-13T07:34:59;7.63;;;3.60;;
6378;SDS011;3222;48.858;10.128;2023-10-13T07:37:35;5.90;;;2.93;;
6378;SDS011;3222;48.858;10.128;2023-10-13T07:40:00;6.20;;;3.83;;
6378;SDS011;3222;48.858;10.128;2023-10-13T07:42:37;5.63;;;3.30;;
6378;SDS011;3222;48.858;10.128;2023-10-13T07:45:06;5.27;;;3.17;;
6378;SDS011;3222;48.858;10.128;2023-10-13T07:47:32;4.83;;;2.97;;
6378;SDS011;3222;48.858;10.128;2023-10-13T07:49:58;7.30;;;3.60;;
6378;SDS011;3222;48.858;10.128;2023-10-13T07:52:24;4.17;;;3.10;;
6378;SDS011;3222;48.858;10.128;2023-10-13T07:55:01;8.07;;;3.37;;
6378;SDS011;3222;48.858;10.128;2023-10-13T07:57:46;9.53;;;3.50;;
6378;SDS011;3222;48.858;10.128;2023-10-13T08:00:22;9.47;;;3.07;;
6378;SDS011;3222;48.858;10.128;2023-10-13T08:03:03;7.47;;;2.87;;
6378;SDS011;3222;48.858;10.128;2023-10-13T08:05:44;6.67;;;3.27;;
6378;SDS011;3222;48.858;10.128;2023-10-13T08:08:43;8.80;;;3.37;;
6378;SDS011;3222;48.858;10.128;2023-10-13T08:11:15;6.13;;;3.53;;
6378;SDS011;3222;48.858;10.128;2023-10-13T08:13:55;6.33;;;3.30;;
6378;SDS011;3222;48.858;10.128;2023-10-13T08:16:35;3.33;;;2.77;;
6378;SDS011;3222;48.858;10.128;2023-10-13T08:19:18;7.13;;;3.00;;
6378;SDS011;3222;48.858;10.128;2023-10-13T08:21:45;6.13;;;3.30;;
6378;SDS011;3222;48.858;10.128;2023-10-13T08:24:32;6.90;;;2.97;;
6378;SDS011;3222;48.858;10.128;2023-10-13T08:27:04;6.97;;;3.00;;
6378;SDS011;3222;48.858;10.128;2023-10-13T08:29:39;9.07;;;3.30;;
6378;SDS011;3222;48.858;10.128;2023-10-13T08:32:34;5.70;;;2.90;;
6378;SDS011;3222;48.858;10.128;2023-10-13T08:35:02;8.60;;;2.93;;
6378;SDS011;3222;48.858;10.128;2023-10-13T08:37:31;8.43;;;3.30;;
6378;SDS011;3222;48.858;10.128;2023-10-13T08:40:27;6.33;;;2.60;;
6378;SDS011;3222;48.858;10.128;2023-10-13T08:43:10;8.07;;;3.30;;
6378;SDS011;3222;48.858;10.128;2023-10-13T08:45:40;5.90;;;2.70;;
6378;SDS011;3222;48.858;10.128;2023-10-13T08:48:09;4.00;;;2.67;;
6378;SDS011;3222;48.858;10.128;2023-10-13T08:50:42;4.67;;;2.43;;
6378;SDS011;3222;48.858;10.128;2023-10-13T08:53:15;5.40;;;3.00;;
6378;SDS011;3222;48.858;10.128;2023-10-13T08:56:01;12.43;;;3.00;;
6378;SDS011;3222;48.858;10.128;2023-10-13T08:58:30;6.80;;;3.27;;
6378;SDS011;3222;48.858;10.128;2023-10-13T09:01:16;5.13;;;2.80;;
6378;SDS011;3222;48.858;10.128;2023-10-13T09:04:04;7.23;;;2.80;;
6378;SDS011;3222;48.858;10.128;2023-10-13T09:09:26;4.23;;;2.33;;
6378;SDS011;3222;48.858;10.128;2023-10-13T09:11:55;5.33;;;2.63;;
6378;SDS011;3222;48.858;10.128;2023-10-13T09:14:35;5.23;;;2.87;;
6378;SDS011;3222;48.858;10.128;2023-10-13T09:17:09;6.10;;;2.67;;
6378;SDS011;3222;48.858;10.128;2023-10-13T09:22:20;5.57;;;3.33;;
6378;SDS011;3222;48.858;10.128;2023-10-13T09:24:53;6.00;;;2.73;;
6378;SDS011;3222;48.858;10.128;2023-10-13T09:27:23;7.17;;;2.97;;
6378;SDS011;3222;48.858;10.128;2023-10-13T09:30:00;6.40;;;3.00;;
6378;SDS011;3222;48.858;10.128;2023-10-13T09:32:35;7.67;;;2.90;;
6378;SDS011;3222;48.858;10.128;2023-10-13T09:35:16;9.70;;;3.00;;
6378;SDS011;3222;48.858;10.128;2023-10-13T09:37:44;6.93;;;2.73;;
6378;SDS011;3222;48.858;10.128;2023-10-13T09:40:16;5.87;;;3.00;;
6378;SDS011;3222;48.858;10.128;2023-10-13T09:42:59;6.43;;;2.47;;
6378;SDS011;3222;48.858;10.128;2023-10-13T09:45:31;7.33;;;2.67;;
6378;SDS011;3222;48.858;10.128;2023-10-13T09:48:11;7.30;;;3.00;;
6378;SDS011;3222;48.858;10.128;2023-10-13T09:50:47;5.60;;;3.00;;
6378;SDS011;3222;48.858;10.128;2023-10-13T09:53:14;6.33;;;2.80;;
6378;SDS011;3222;48.858;10.128;2023-10-13T09:55:47;7.30;;;2.80;;
6378;SDS011;3222;48.858;10.128;2023-10-13T09:58:15;8.03;;;2.50;;
6378;SDS011;3222;48.858;10.128;2023-10-13T10:00:54;8.80;;;2.77;;
6378;SDS011;3222;48.858;10.128;2023-10-13T10:03:23;4.80;;;2.60;;
6378;SDS011;3222;48.858;10.128;2023-10-13T10:06:04;5.97;;;2.53;;
6378;SDS011;3222;48.858;10.128;2023-10-13T10:08:44;9.43;;;3.57;;
6378;SDS011;3222;48.858;10.128;2023-10-13T10:11:23;7.47;;;2.63;;
6378;SDS011;3222;48.858;10.128;2023-10-13T10:14:12;6.17;;;2.63;;
6378;SDS011;3222;48.858;10.128;2023-10-13T10:16:50;4.67;;;2.30;;
6378;SDS011;3222;48.858;10.128;2023-10-13T10:19:26;10.13;;;2.80;;
6378;SDS011;3222;48.858;10.128;2023-10-13T10:22:04;5.80;;;2.60;;
6378;SDS011;3222;48.858;10.128;2023-10-13T10:24:42;6.43;;;2.53;;
6378;SDS011;3222;48.858;10.128;2023-10-13T10:27:08;7.20;;;2.60;;
6378;SDS011;3222;48.858;10.128;2023-10-13T10:29:39;3.70;;;2.65;;
6378;SDS011;3222;48.858;10.128;2023-10-13T10:32:17;3.87;;;2.93;;
6378;SDS011;3222;48.858;10.128;2023-10-13T10:34:44;4.17;;;2.50;;
6378;SDS011;3222;48.858;10.128;2023-10-13T10:37:10;5.60;;;3.17;;
6378;SDS011;3222;48.858;10.128;2023-10-13T10:39:37;5.97;;;2.90;;
6378;SDS011;3222;48.858;10.128;2023-10-13T10:42:13;4.93;;;2.75;;
6378;SDS011;3222;48.858;10.128;2023-10-13T10:44:40;8.85;;;2.65;;
6378;SDS011;3222;48.858;10.128;2023-10-13T10:47:10;5.30;;;2.90;;
6378;SDS011;3222;48.858;10.128;2023-10-13T10:49:39;3.83;;;2.40;;
6378;SDS011;3222;48.858;10.128;2023-10-13T10:52:07;7.68;;;3.70;;
6378;SDS011;3222;48.858;10.128;2023-10-13T10:54:44;3.40;;;2.30;;
6378;SDS011;3222;48.858;10.128;2023-10-13T10:57:16;7.03;;;2.72;;
6378;SDS011;3222;48.858;10.128;2023-10-13T10:59:42;9.13;;;3.27;;
6378;SDS011;3222;48.858;10.128;2023-10-13T11:02:09;5.05;;;3.08;;
6378;SDS011;3222;48.858;10.128;2023-10-13T11:04:40;7.65;;;3.13;;
6378;SDS011;3222;48.858;10.128;2023-10-13T11:07:20;6.57;;;2.80;;
6378;SDS011;3222;48.858;10.128;2023-10-13T11:09:48;5.68;;;3.03;;
6378;SDS011;3222;48.858;10.128;2023-10-13T11:12:17;6.95;;;2.90;;
6378;SDS011;3222;48.858;10.128;2023-10-13T11:15:04;6.25;;;2.63;;
6378;SDS011;3222;48.858;10.128;2023-10-13T11:17:49;3.75;;;2.30;;
6378;SDS011;3222;48.858;10.128;2023-10-13T11:20:21;4.28;;;2.45;;
6378;SDS011;3222;48.858;10.128;2023-10-13T11:22:58;4.75;;;2.53;;
6378;SDS011;3222;48.858;10.128;2023-10-13T11:25:29;4.82;;;2.50;;
6378;SDS011;3222;48.858;10.128;2023-10-13T11:28:09;4.20;;;2.38;;
6378;SDS011;3222;48.858;10.128;2023-10-13T11:30:35;5.65;;;2.70;;
6378;SDS011;3222;48.858;10.128;2023-10-13T11:35:33;5.43;;;2.78;;
6378;SDS011;3222;48.858;10.128;2023-10-13T11:38:21;6.88;;;2.80;;
6378;SDS011;3222;48.858;10.128;2023-10-13T11:40:52;5.18;;;2.83;;
6378;SDS011;3222;48.858;10.128;2023-10-13T11:43:31;6.55;;;3.00;;
6378;SDS011;3222;48.858;10.128;2023-10-13T11:46:16;7.80;;;3.38;;
6378;SDS011;3222;48.858;10.128;2023-10-13T11:49:06;7.93;;;2.88;;
6378;SDS011;3222;48.858;10.128;2023-10-13T11:51:38;6.10;;;2.72;;
6378;SDS011;3222;48.858;10.128;2023-10-13T11:54:04;5.45;;;2.60;;
6378;SDS011;3222;48.858;10.128;2023-10-13T11:56:30;5.32;;;2.58;;
6378;SDS011;3222;48.858;10.128;2023-10-13T11:58:56;8.00;;;2.60;;
6378;SDS011;3222;48.858;10.128;2023-10-13T12:01:26;3.70;;;2.35;;
6378;SDS011;3222;48.858;10.128;2023-10-13T12:04:11;3.70;;;2.20;;
6378;SDS011;3222;48.858;10.128;2023-10-13T12:06:55;3.42;;;2.53;;
6378;SDS011;3222;48.858;10.128;2023-10-13T12:09:39;6.72;;;2.70;;
6378;SDS011;3222;48.858;10.128;2023-10-13T12:12:20;8.35;;;2.65;;
6378;SDS011;3222;48.858;10.128;2023-10-13T12:14:46;6.35;;;2.58;;
6378;SDS011;3222;48.858;10.128;2023-10-13T12:17:29;6.07;;;2.70;;
6378;SDS011;3222;48.858;10.128;2023-10-13T12:20:05;3.95;;;2.33;;
6378;SDS011;3222;48.858;10.128;2023-10-13T12:22:35;6.05;;;2.13;;
6378;SDS011;3222;48.858;10.128;2023-10-13T12:25:07;5.55;;;2.60;;
6378;SDS011;3222;48.858;10.128;2023-10-13T12:27:59;5.47;;;2.60;;
6378;SDS011;3222;48.858;10.128;2023-10-13T12:30:43;9.15;;;2.60;;
6378;SDS011;3222;48.858;10.128;2023-10-13T12:33:22;4.80;;;2.22;;
6378;SDS011;3222;48.858;10.128;2023-10-13T12:35:59;4.20;;;2.20;;
6378;SDS011;3222;48.858;10.128;2023-10-13T12:38:38;4.85;;;2.35;;
6378;SDS011;3222;48.858;10.128;2023-10-13T12:41:19;5.38;;;2.40;;
6378;SDS011;3222;48.858;10.128;2023-10-13T12:44:04;4.88;;;2.45;;
6378;SDS011;3222;48.858;10.128;2023-10-13T12:46:49;5.53;;;2.45;;
6378;SDS011;3222;48.858;10.128;2023-10-13T12:49:34;9.93;;;2.55;;
6378;SDS011;3222;48.858;10.128;2023-10-13T12:52:12;8.52;;;2.30;;
6378;SDS011;3222;48.858;10.128;2023-10-13T12:54:47;8.35;;;2.80;;
6378;SDS011;3222;48.858;10.128;2023-10-13T12:57:22;8.30;;;1.95;;
6378;SDS011;3222;48.858;10.128;2023-10-13T12:59:49;6.68;;;2.25;;
6378;SDS011;3222;48.858;10.128;2023-10-13T13:02:18;6.53;;;2.55;;
6378;SDS011;3222;48.858;10.128;2023-10-13T13:04:45;6.57;;;2.78;;
6378;SDS011;3222;48.858;10.128;2023-10-13T13:07:16;4.82;;;2.45;;
6378;SDS011;3222;48.858;10.128;2023-10-13T13:09:42;6.35;;;2.35;;
6378;SDS011;3222;48.858;10.128;2023-10-13T13:12:08;4.50;;;1.80;;
6378;SDS011;3222;48.858;10.128;2023-10-13T13:14:37;4.05;;;2.10;;
6378;SDS011;3222;48.858;10.128;2023-10-13T13:17:05;5.40;;;2.78;;
6378;SDS011;3222;48.858;10.128;2023-10-13T13:22:01;5.55;;;2.90;;
6378;SDS011;3222;48.858;10.128;2023-10-13T13:24:28;3.65;;;2.60;;
6378;SDS011;3222;48.858;10.128;2023-10-13T13:26:57;5.68;;;2.67;;
6378;SDS011;3222;48.858;10.128;2023-10-13T13:29:30;8.45;;;2.78;;
6378;SDS011;3222;48.858;10.128;2023-10-13T13:31:56;6.93;;;3.00;;
6378;SDS011;3222;48.858;10.128;2023-10-13T13:34:22;5.22;;;2.63;;
6378;SDS011;3222;48.858;10.128;2023-10-13T13:36:48;5.93;;;2.70;;
6378;SDS011;3222;48.858;10.128;2023-10-13T13:39:20;6.85;;;2.60;;
6378;SDS011;3222;48.858;10.128;2023-10-13T13:41:55;5.00;;;2.50;;
6378;SDS011;3222;48.858;10.128;2023-10-13T13:44:24;6.90;;;2.55;;
6378;SDS011;3222;48.858;10.128;2023-10-13T13:47:00;4.40;;;2.50;;
6378;SDS011;3222;48.858;10.128;2023-10-13T13:49:37;5.30;;;2.55;;
6378;SDS011;3222;48.858;10.128;2023-10-13T13:52:05;6.28;;;2.67;;
6378;SDS011;3222;48.858;10.128;2023-10-13T13:54:32;8.18;;;2.83;;
6378;SDS011;3222;48.858;10.128;2023-10-13T13:56:58;9.10;;;3.15;;
6378;SDS011;3222;48.858;10.128;2023-10-13T13:59:24;5.10;;;2.83;;
6378;SDS011;3222;48.858;10.128;2023-10-13T14:01:50;5.38;;;2.80;;
6378;SDS011;3222;48.858;10.128;2023-10-13T14:04:18;5.68;;;2.60;;
6378;SDS011;3222;48.858;10.128;2023-10-13T14:06:44;3.63;;;2.58;;
6378;SDS011;3222;48.858;10.128;2023-10-13T14:09:10;6.90;;;2.33;;
6378;SDS011;3222;48.858;10.128;2023-10-13T14:11:40;3.58;;;2.63;;
6378;SDS011;3222;48.858;10.128;2023-10-13T14:14:30;4.30;;;2.50;;
6378;SDS011;3222;48.858;10.128;2023-10-13T14:16:58;4.57;;;2.63;;
6378;SDS011;3222;48.858;10.128;2023-10-13T14:19:31;7.20;;;2.53;;
6378;SDS011;3222;48.858;10.128;2023-10-13T14:21:58;4.70;;;2.65;;
6378;SDS011;3222;48.858;10.128;2023-10-13T14:24:25;11.25;;;2.50;;
6378;SDS011;3222;48.858;10.128;2023-10-13T14:26:58;6.47;;;2.50;;
6378;SDS011;3222;48.858;10.128;2023-10-13T14:29:33;3.90;;;2.72;;
6378;SDS011;3222;48.858;10.128;2023-10-13T14:31:59;4.57;;;2.13;;
6378;SDS011;3222;48.858;10.128;2023-10-13T14:34:25;2.38;;;2.13;;
6378;SDS011;3222;48.858;10.128;2023-10-13T14:36:51;6.50;;;2.65;;
6378;SDS011;3222;48.858;10.128;2023-10-13T14:39:19;7.30;;;2.60;;
6378;SDS011;3222;48.858;10.128;2023-10-13T14:41:49;4.70;;;2.55;;
6378;SDS011;3222;48.858;10.128;2023-10-13T14:44:14;6.47;;;2.88;;
6378;SDS011;3222;48.858;10.128;2023-10-13T14:46:40;3.65;;;2.00;;
6378;SDS011;3222;48.858;10.128;2023-10-13T14:49:06;4.40;;;2.40;;
6378;SDS011;3222;48.858;10.128;2023-10-13T14:51:31;4.40;;;2.10;;
6378;SDS011;3222;48.858;10.128;2023-10-13T14:53:58;7.97;;;2.90;;
6378;SDS011;3222;48.858;10.128;2023-10-13T14:56:29;7.72;;;4.03;;
6378;SDS011;3222;48.858;10.128;2023-10-13T14:58:54;10.15;;;4.10;;
6378;SDS011;3222;48.858;10.128;2023-10-13T15:01:21;7.13;;;3.67;;
6378;SDS011;3222;48.858;10.128;2023-10-13T15:03:52;6.93;;;3.53;;
6378;SDS011;3222;48.858;10.128;2023-10-13T15:06:23;8.45;;;3.58;;
6378;SDS011;3222;48.858;10.128;2023-10-13T15:08:50;6.72;;;3.03;;
6378;SDS011;3222;48.858;10.128;2023-10-13T15:11:19;6.70;;;3.20;;
6378;SDS011;3222;48.858;10.128;2023-10-13T15:13:45;6.72;;;2.92;;
6378;SDS011;3222;48.858;10.128;2023-10-13T15:16:16;6.93;;;2.60;;
6378;SDS011;3222;48.858;10.128;2023-10-13T15:18:46;4.43;;;2.40;;
6378;SDS011;3222;48.858;10.128;2023-10-13T15:21:21;6.13;;;2.13;;
6378;SDS011;3222;48.858;10.128;2023-10-13T15:23:51;3.67;;;2.20;;
6378;SDS011;3222;48.858;10.128;2023-10-13T15:26:18;3.30;;;2.40;;
6378;SDS011;3222;48.858;10.128;2023-10-13T15:28:47;6.18;;;2.70;;
6378;SDS011;3222;48.858;10.128;2023-10-13T15:31:24;8.38;;;2.33;;
6378;SDS011;3222;48.858;10.128;2023-10-13T15:33:59;4.45;;;2.35;;
6378;SDS011;3222;48.858;10.128;2023-10-13T15:36:31;4.82;;;2.38;;
6378;SDS011;3222;48.858;10.128;2023-10-13T15:38:58;6.55;;;2.35;;
6378;SDS011;3222;48.858;10.128;2023-10-13T15:41:24;8.25;;;2.60;;
6378;SDS011;3222;48.858;10.128;2023-10-13T15:43:51;3.05;;;2.38;;
6378;SDS011;3222;48.858;10.128;2023-10-13T15:46:17;8.20;;;2.30;;
6378;SDS011;3222;48.858;10.128;2023-10-13T15:48:51;7.45;;;4.13;;
6378;SDS011;3222;48.858;10.128;2023-10-13T15:51:17;10.88;;;6.55;;
6378;SDS011;3222;48.858;10.128;2023-10-13T15:53:44;8.18;;;3.72;;